Montpelier, Mississippi
Current Conditions -  °F | °C
As of 3:15 PM on Sunday 23 Nov 2014 (Local Time) from KSTF Reporting Station
Overcast Overcast  
Wind Chill: 64°   Ceiling: 4900
Heat Index: 64°   Visibility: NA
Dew Point: 59°   Wind: 12mph
Humidity: 83%   Direction: 210°SSW
Pressure: 29.46"   Gusts: 21mph
Location:  33.72°N, 88.95°W
Report Text: KSTF 232115Z AUTO 21010G18KT SCT034 BKN049 OVC085 18/15 A2946 RMK AO2 PWINO
Loading
Personal Weather Stations






























Interactive Weather Map New forecast layout! Learn more

10-Day Weather Forecast

Advertisements
Track Severe Weather on mobile